sensor_id;sensor_type;location;lat;lon;timestamp;P1;durP1;ratioP1;P2;durP2;ratioP2
76123;SDS011;65173;48.066;20.976;2022-12-18T00:00:57;30.92;;;13.15;;
76123;SDS011;65173;48.066;20.976;2022-12-18T00:04:01;28.30;;;12.00;;
76123;SDS011;65173;48.066;20.976;2022-12-18T00:07:09;31.98;;;12.30;;
76123;SDS011;65173;48.066;20.976;2022-12-18T00:10:11;30.07;;;11.57;;
76123;SDS011;65173;48.066;20.976;2022-12-18T00:13:16;30.98;;;12.68;;
76123;SDS011;65173;48.066;20.976;2022-12-18T00:16:20;35.95;;;12.68;;
76123;SDS011;65173;48.066;20.976;2022-12-18T00:19:24;32.10;;;11.77;;
76123;SDS011;65173;48.066;20.976;2022-12-18T00:22:27;26.00;;;10.40;;
76123;SDS011;65173;48.066;20.976;2022-12-18T00:25:31;28.05;;;11.05;;
76123;SDS011;65173;48.066;20.976;2022-12-18T00:28:35;28.45;;;11.13;;
76123;SDS011;65173;48.066;20.976;2022-12-18T00:31:38;25.52;;;11.15;;
76123;SDS011;65173;48.066;20.976;2022-12-18T00:34:45;26.85;;;12.23;;
76123;SDS011;65173;48.066;20.976;2022-12-18T00:37:50;30.27;;;11.32;;
76123;SDS011;65173;48.066;20.976;2022-12-18T00:40:52;28.17;;;10.73;;
76123;SDS011;65173;48.066;20.976;2022-12-18T00:43:55;26.75;;;11.68;;
76123;SDS011;65173;48.066;20.976;2022-12-18T00:46:57;32.53;;;13.02;;
76123;SDS011;65173;48.066;20.976;2022-12-18T00:50:00;31.13;;;13.00;;
76123;SDS011;65173;48.066;20.976;2022-12-18T00:53:03;27.40;;;11.10;;
76123;SDS011;65173;48.066;20.976;2022-12-18T00:56:06;28.50;;;11.65;;
76123;SDS011;65173;48.066;20.976;2022-12-18T00:59:09;29.20;;;11.65;;
76123;SDS011;65173;48.066;20.976;2022-12-18T01:02:13;30.10;;;13.88;;
76123;SDS011;65173;48.066;20.976;2022-12-18T01:05:17;35.53;;;15.75;;
76123;SDS011;65173;48.066;20.976;2022-12-18T01:08:20;33.60;;;13.55;;
76123;SDS011;65173;48.066;20.976;2022-12-18T01:11:23;31.73;;;14.70;;
76123;SDS011;65173;48.066;20.976;2022-12-18T01:14:26;34.20;;;15.35;;
76123;SDS011;65173;48.066;20.976;2022-12-18T01:17:29;33.40;;;14.18;;
76123;SDS011;65173;48.066;20.976;2022-12-18T01:20:32;32.47;;;14.40;;
76123;SDS011;65173;48.066;20.976;2022-12-18T01:23:34;30.77;;;12.63;;
76123;SDS011;65173;48.066;20.976;2022-12-18T01:26:38;29.70;;;12.43;;
76123;SDS011;65173;48.066;20.976;2022-12-18T01:29:41;29.90;;;12.50;;
76123;SDS011;65173;48.066;20.976;2022-12-18T01:32:44;27.33;;;13.23;;
76123;SDS011;65173;48.066;20.976;2022-12-18T01:35:47;30.17;;;13.13;;
76123;SDS011;65173;48.066;20.976;2022-12-18T01:38:50;32.03;;;13.32;;
76123;SDS011;65173;48.066;20.976;2022-12-18T01:41:53;34.60;;;12.97;;
76123;SDS011;65173;48.066;20.976;2022-12-18T01:48:18;37.13;;;15.05;;
76123;SDS011;65173;48.066;20.976;2022-12-18T01:51:21;40.43;;;14.10;;
76123;SDS011;65173;48.066;20.976;2022-12-18T01:54:24;31.73;;;13.45;;
76123;SDS011;65173;48.066;20.976;2022-12-18T01:57:27;41.83;;;17.30;;
76123;SDS011;65173;48.066;20.976;2022-12-18T02:00:30;44.55;;;17.13;;
76123;SDS011;65173;48.066;20.976;2022-12-18T02:03:33;51.75;;;19.92;;
76123;SDS011;65173;48.066;20.976;2022-12-18T02:06:38;51.78;;;21.27;;
76123;SDS011;65173;48.066;20.976;2022-12-18T02:09:47;53.72;;;21.15;;
76123;SDS011;65173;48.066;20.976;2022-12-18T02:12:58;31.87;;;14.10;;
76123;SDS011;65173;48.066;20.976;2022-12-18T02:16:44;31.13;;;14.45;;
76123;SDS011;65173;48.066;20.976;2022-12-18T02:29:54;32.10;;;13.80;;
76123;SDS011;65173;48.066;20.976;2022-12-18T02:33:04;30.77;;;13.18;;
76123;SDS011;65173;48.066;20.976;2022-12-18T02:36:09;32.80;;;13.68;;
76123;SDS011;65173;48.066;20.976;2022-12-18T02:39:16;37.67;;;15.63;;
76123;SDS011;65173;48.066;20.976;2022-12-18T02:42:31;40.35;;;14.55;;
76123;SDS011;65173;48.066;20.976;2022-12-18T02:45:36;31.63;;;14.80;;
76123;SDS011;65173;48.066;20.976;2022-12-18T02:48:49;31.48;;;12.68;;
76123;SDS011;65173;48.066;20.976;2022-12-18T02:51:55;32.97;;;13.07;;
76123;SDS011;65173;48.066;20.976;2022-12-18T02:55:31;37.23;;;15.30;;
76123;SDS011;65173;48.066;20.976;2022-12-18T02:58:57;35.15;;;13.95;;
76123;SDS011;65173;48.066;20.976;2022-12-18T03:02:19;28.70;;;12.32;;
76123;SDS011;65173;48.066;20.976;2022-12-18T03:05:30;36.97;;;13.68;;
76123;SDS011;65173;48.066;20.976;2022-12-18T03:08:39;30.20;;;12.90;;
76123;SDS011;65173;48.066;20.976;2022-12-18T03:11:46;31.50;;;13.38;;
76123;SDS011;65173;48.066;20.976;2022-12-18T03:15:25;30.83;;;13.68;;
76123;SDS011;65173;48.066;20.976;2022-12-18T03:18:52;33.50;;;12.77;;
76123;SDS011;65173;48.066;20.976;2022-12-18T03:22:00;28.60;;;12.75;;
76123;SDS011;65173;48.066;20.976;2022-12-18T03:25:15;33.55;;;13.80;;
76123;SDS011;65173;48.066;20.976;2022-12-18T03:28:22;31.73;;;12.73;;
76123;SDS011;65173;48.066;20.976;2022-12-18T03:31:32;34.08;;;13.73;;
76123;SDS011;65173;48.066;20.976;2022-12-18T03:34:38;41.50;;;16.80;;
76123;SDS011;65173;48.066;20.976;2022-12-18T03:37:47;35.42;;;16.25;;
76123;SDS011;65173;48.066;20.976;2022-12-18T03:40:59;37.55;;;15.95;;
76123;SDS011;65173;48.066;20.976;2022-12-18T03:47:24;41.45;;;18.80;;
76123;SDS011;65173;48.066;20.976;2022-12-18T03:50:49;39.80;;;14.97;;
76123;SDS011;65173;48.066;20.976;2022-12-18T03:54:04;38.08;;;15.75;;
76123;SDS011;65173;48.066;20.976;2022-12-18T03:57:18;35.65;;;16.58;;
76123;SDS011;65173;48.066;20.976;2022-12-18T04:00:27;38.37;;;16.30;;
76123;SDS011;65173;48.066;20.976;2022-12-18T04:03:40;35.58;;;15.52;;
76123;SDS011;65173;48.066;20.976;2022-12-18T04:06:46;35.70;;;14.15;;
76123;SDS011;65173;48.066;20.976;2022-12-18T04:09:53;38.13;;;15.70;;
76123;SDS011;65173;48.066;20.976;2022-12-18T04:12:59;41.60;;;16.85;;
76123;SDS011;65173;48.066;20.976;2022-12-18T04:16:02;33.38;;;14.48;;
76123;SDS011;65173;48.066;20.976;2022-12-18T04:19:06;37.65;;;14.63;;
76123;SDS011;65173;48.066;20.976;2022-12-18T04:22:14;43.73;;;15.93;;
76123;SDS011;65173;48.066;20.976;2022-12-18T04:25:21;48.33;;;18.08;;
76123;SDS011;65173;48.066;20.976;2022-12-18T04:28:41;42.47;;;18.27;;
76123;SDS011;65173;48.066;20.976;2022-12-18T04:31:44;41.53;;;18.03;;
76123;SDS011;65173;48.066;20.976;2022-12-18T04:34:46;44.80;;;18.42;;
76123;SDS011;65173;48.066;20.976;2022-12-18T04:37:49;44.30;;;19.77;;
76123;SDS011;65173;48.066;20.976;2022-12-18T04:40:56;40.80;;;16.98;;
76123;SDS011;65173;48.066;20.976;2022-12-18T04:44:01;43.67;;;20.08;;
76123;SDS011;65173;48.066;20.976;2022-12-18T04:47:03;43.63;;;18.08;;
76123;SDS011;65173;48.066;20.976;2022-12-18T04:50:06;47.50;;;18.33;;
76123;SDS011;65173;48.066;20.976;2022-12-18T04:53:09;39.50;;;16.40;;
76123;SDS011;65173;48.066;20.976;2022-12-18T04:56:13;42.45;;;17.55;;
76123;SDS011;65173;48.066;20.976;2022-12-18T04:59:16;37.42;;;14.93;;
76123;SDS011;65173;48.066;20.976;2022-12-18T05:02:19;34.17;;;14.90;;
76123;SDS011;65173;48.066;20.976;2022-12-18T05:05:22;40.70;;;14.95;;
76123;SDS011;65173;48.066;20.976;2022-12-18T05:08:25;44.55;;;16.67;;
76123;SDS011;65173;48.066;20.976;2022-12-18T05:11:28;35.03;;;15.95;;
76123;SDS011;65173;48.066;20.976;2022-12-18T05:14:30;35.50;;;15.90;;
76123;SDS011;65173;48.066;20.976;2022-12-18T05:17:33;52.17;;;21.02;;
76123;SDS011;65173;48.066;20.976;2022-12-18T05:20:36;45.90;;;20.95;;
76123;SDS011;65173;48.066;20.976;2022-12-18T05:23:38;54.50;;;22.33;;
76123;SDS011;65173;48.066;20.976;2022-12-18T05:26:42;55.28;;;24.02;;
76123;SDS011;65173;48.066;20.976;2022-12-18T05:29:45;76.15;;;32.75;;
76123;SDS011;65173;48.066;20.976;2022-12-18T05:32:47;63.70;;;27.77;;
76123;SDS011;65173;48.066;20.976;2022-12-18T05:35:54;60.22;;;23.83;;
76123;SDS011;65173;48.066;20.976;2022-12-18T05:38:58;52.00;;;22.80;;
76123;SDS011;65173;48.066;20.976;2022-12-18T05:42:02;44.17;;;18.98;;
76123;SDS011;65173;48.066;20.976;2022-12-18T05:45:05;40.28;;;16.77;;
76123;SDS011;65173;48.066;20.976;2022-12-18T05:48:08;46.28;;;20.73;;
76123;SDS011;65173;48.066;20.976;2022-12-18T05:51:15;47.50;;;20.73;;
76123;SDS011;65173;48.066;20.976;2022-12-18T05:54:18;48.50;;;19.13;;
76123;SDS011;65173;48.066;20.976;2022-12-18T05:57:21;40.92;;;18.85;;
76123;SDS011;65173;48.066;20.976;2022-12-18T06:00:24;79.50;;;30.52;;
76123;SDS011;65173;48.066;20.976;2022-12-18T06:03:27;95.80;;;38.23;;
76123;SDS011;65173;48.066;20.976;2022-12-18T06:06:35;72.53;;;27.92;;
76123;SDS011;65173;48.066;20.976;2022-12-18T06:09:38;59.47;;;22.65;;
76123;SDS011;65173;48.066;20.976;2022-12-18T06:12:40;88.50;;;37.42;;
76123;SDS011;65173;48.066;20.976;2022-12-18T06:15:43;46.63;;;17.95;;
76123;SDS011;65173;48.066;20.976;2022-12-18T06:18:46;53.28;;;22.05;;
76123;SDS011;65173;48.066;20.976;2022-12-18T06:21:49;45.92;;;20.75;;
76123;SDS011;65173;48.066;20.976;2022-12-18T06:24:53;47.80;;;21.23;;
76123;SDS011;65173;48.066;20.976;2022-12-18T06:27:55;53.58;;;21.88;;
76123;SDS011;65173;48.066;20.976;2022-12-18T06:30:58;43.65;;;18.02;;
76123;SDS011;65173;48.066;20.976;2022-12-18T06:34:02;46.50;;;16.83;;
76123;SDS011;65173;48.066;20.976;2022-12-18T06:37:06;48.65;;;19.50;;
76123;SDS011;65173;48.066;20.976;2022-12-18T06:40:09;49.35;;;20.83;;
76123;SDS011;65173;48.066;20.976;2022-12-18T06:43:11;71.30;;;25.75;;
76123;SDS011;65173;48.066;20.976;2022-12-18T06:46:14;67.35;;;28.92;;
76123;SDS011;65173;48.066;20.976;2022-12-18T06:49:17;61.10;;;25.02;;
76123;SDS011;65173;48.066;20.976;2022-12-18T06:52:20;62.33;;;25.45;;
76123;SDS011;65173;48.066;20.976;2022-12-18T06:55:22;47.03;;;19.20;;
76123;SDS011;65173;48.066;20.976;2022-12-18T06:58:27;52.33;;;19.80;;
76123;SDS011;65173;48.066;20.976;2022-12-18T07:01:30;47.92;;;19.20;;
76123;SDS011;65173;48.066;20.976;2022-12-18T07:04:53;50.70;;;17.97;;
76123;SDS011;65173;48.066;20.976;2022-12-18T07:07:56;49.35;;;17.27;;
76123;SDS011;65173;48.066;20.976;2022-12-18T07:11:02;53.30;;;19.35;;
76123;SDS011;65173;48.066;20.976;2022-12-18T07:14:06;52.05;;;17.83;;
76123;SDS011;65173;48.066;20.976;2022-12-18T07:17:09;47.90;;;18.55;;
76123;SDS011;65173;48.066;20.976;2022-12-18T07:20:12;52.53;;;20.55;;
76123;SDS011;65173;48.066;20.976;2022-12-18T07:23:15;50.50;;;19.08;;
76123;SDS011;65173;48.066;20.976;2022-12-18T07:26:18;49.87;;;17.03;;
76123;SDS011;65173;48.066;20.976;2022-12-18T07:29:22;45.63;;;18.35;;
76123;SDS011;65173;48.066;20.976;2022-12-18T07:32:25;47.33;;;18.08;;
76123;SDS011;65173;48.066;20.976;2022-12-18T07:35:32;40.47;;;16.23;;
76123;SDS011;65173;48.066;20.976;2022-12-18T07:38:46;40.85;;;16.17;;
76123;SDS011;65173;48.066;20.976;2022-12-18T07:41:50;45.35;;;17.00;;
76123;SDS011;65173;48.066;20.976;2022-12-18T07:45:14;52.95;;;17.63;;
76123;SDS011;65173;48.066;20.976;2022-12-18T07:48:18;51.47;;;19.17;;
76123;SDS011;65173;48.066;20.976;2022-12-18T07:51:20;44.17;;;15.90;;
76123;SDS011;65173;48.066;20.976;2022-12-18T07:54:24;55.28;;;20.33;;
76123;SDS011;65173;48.066;20.976;2022-12-18T07:57:26;52.00;;;22.53;;
76123;SDS011;65173;48.066;20.976;2022-12-18T08:00:49;57.05;;;20.15;;
76123;SDS011;65173;48.066;20.976;2022-12-18T08:03:52;57.97;;;19.58;;
76123;SDS011;65173;48.066;20.976;2022-12-18T08:06:55;57.30;;;18.07;;
76123;SDS011;65173;48.066;20.976;2022-12-18T08:09:58;48.92;;;19.60;;
76123;SDS011;65173;48.066;20.976;2022-12-18T08:13:00;50.38;;;17.42;;
76123;SDS011;65173;48.066;20.976;2022-12-18T08:16:06;46.65;;;17.80;;
76123;SDS011;65173;48.066;20.976;2022-12-18T08:19:10;47.45;;;16.75;;
76123;SDS011;65173;48.066;20.976;2022-12-18T08:22:12;46.42;;;17.40;;
76123;SDS011;65173;48.066;20.976;2022-12-18T08:25:15;61.08;;;19.88;;
76123;SDS011;65173;48.066;20.976;2022-12-18T08:28:18;50.20;;;16.37;;
76123;SDS011;65173;48.066;20.976;2022-12-18T08:31:21;51.17;;;16.23;;
76123;SDS011;65173;48.066;20.976;2022-12-18T08:34:25;54.40;;;17.83;;
76123;SDS011;65173;48.066;20.976;2022-12-18T08:37:28;49.80;;;19.13;;
76123;SDS011;65173;48.066;20.976;2022-12-18T08:40:31;46.13;;;17.25;;
76123;SDS011;65173;48.066;20.976;2022-12-18T08:43:34;56.25;;;18.30;;
76123;SDS011;65173;48.066;20.976;2022-12-18T08:46:55;43.13;;;16.35;;
76123;SDS011;65173;48.066;20.976;2022-12-18T08:49:58;43.88;;;16.42;;
76123;SDS011;65173;48.066;20.976;2022-12-18T08:53:01;46.67;;;18.00;;
76123;SDS011;65173;48.066;20.976;2022-12-18T08:56:04;51.58;;;17.80;;
76123;SDS011;65173;48.066;20.976;2022-12-18T08:59:08;52.63;;;18.50;;
76123;SDS011;65173;48.066;20.976;2022-12-18T09:02:20;48.15;;;17.15;;
76123;SDS011;65173;48.066;20.976;2022-12-18T09:05:22;46.40;;;16.90;;
76123;SDS011;65173;48.066;20.976;2022-12-18T09:08:25;45.63;;;17.87;;
76123;SDS011;65173;48.066;20.976;2022-12-18T09:11:29;47.03;;;17.70;;
76123;SDS011;65173;48.066;20.976;2022-12-18T09:14:32;46.40;;;19.23;;
76123;SDS011;65173;48.066;20.976;2022-12-18T09:17:35;50.78;;;18.13;;
76123;SDS011;65173;48.066;20.976;2022-12-18T09:20:38;50.22;;;17.05;;
76123;SDS011;65173;48.066;20.976;2022-12-18T09:23:41;46.42;;;17.77;;
76123;SDS011;65173;48.066;20.976;2022-12-18T09:26:44;46.33;;;15.70;;
76123;SDS011;65173;48.066;20.976;2022-12-18T09:29:49;47.13;;;18.07;;
76123;SDS011;65173;48.066;20.976;2022-12-18T09:32:53;49.97;;;17.27;;
76123;SDS011;65173;48.066;20.976;2022-12-18T09:35:56;43.33;;;15.57;;
76123;SDS011;65173;48.066;20.976;2022-12-18T09:38:58;48.80;;;17.27;;
76123;SDS011;65173;48.066;20.976;2022-12-18T09:42:12;45.63;;;17.40;;
76123;SDS011;65173;48.066;20.976;2022-12-18T09:45:22;51.38;;;17.77;;
76123;SDS011;65173;48.066;20.976;2022-12-18T09:48:34;45.75;;;15.52;;
76123;SDS011;65173;48.066;20.976;2022-12-18T09:51:41;41.63;;;17.17;;
76123;SDS011;65173;48.066;20.976;2022-12-18T09:55:00;49.78;;;18.13;;
76123;SDS011;65173;48.066;20.976;2022-12-18T10:01:26;59.30;;;20.43;;
76123;SDS011;65173;48.066;20.976;2022-12-18T10:04:45;55.08;;;19.27;;
76123;SDS011;65173;48.066;20.976;2022-12-18T10:08:05;47.53;;;16.25;;
76123;SDS011;65173;48.066;20.976;2022-12-18T10:14:59;51.50;;;17.92;;
76123;SDS011;65173;48.066;20.976;2022-12-18T10:22:07;36.58;;;14.63;;
76123;SDS011;65173;48.066;20.976;2022-12-18T10:25:26;45.97;;;18.30;;
76123;SDS011;65173;48.066;20.976;2022-12-18T10:28:37;53.75;;;19.02;;
76123;SDS011;65173;48.066;20.976;2022-12-18T10:31:42;59.22;;;19.75;;
76123;SDS011;65173;48.066;20.976;2022-12-18T10:34:46;54.70;;;19.93;;
76123;SDS011;65173;48.066;20.976;2022-12-18T10:38:03;69.97;;;24.35;;
76123;SDS011;65173;48.066;20.976;2022-12-18T10:41:25;52.92;;;21.25;;
76123;SDS011;65173;48.066;20.976;2022-12-18T10:44:34;40.67;;;15.17;;
76123;SDS011;65173;48.066;20.976;2022-12-18T10:47:37;51.50;;;17.52;;
76123;SDS011;65173;48.066;20.976;2022-12-18T10:50:46;54.13;;;17.58;;
76123;SDS011;65173;48.066;20.976;2022-12-18T10:54:15;54.92;;;19.90;;
76123;SDS011;65173;48.066;20.976;2022-12-18T11:00:36;53.13;;;17.58;;
76123;SDS011;65173;48.066;20.976;2022-12-18T11:03:40;54.22;;;18.77;;
76123;SDS011;65173;48.066;20.976;2022-12-18T11:10:03;51.20;;;17.73;;
76123;SDS011;65173;48.066;20.976;2022-12-18T11:13:09;54.25;;;19.52;;
76123;SDS011;65173;48.066;20.976;2022-12-18T11:16:19;54.13;;;19.67;;
76123;SDS011;65173;48.066;20.976;2022-12-18T11:19:35;49.33;;;18.15;;
76123;SDS011;65173;48.066;20.976;2022-12-18T11:22:39;42.30;;;16.92;;
76123;SDS011;65173;48.066;20.976;2022-12-18T11:25:42;49.22;;;16.50;;
76123;SDS011;65173;48.066;20.976;2022-12-18T11:29:07;43.97;;;14.88;;
76123;SDS011;65173;48.066;20.976;2022-12-18T11:35:47;47.33;;;15.27;;
76123;SDS011;65173;48.066;20.976;2022-12-18T11:38:54;44.80;;;15.43;;
76123;SDS011;65173;48.066;20.976;2022-12-18T11:42:04;42.97;;;16.80;;
76123;SDS011;65173;48.066;20.976;2022-12-18T11:48:33;47.83;;;16.17;;
76123;SDS011;65173;48.066;20.976;2022-12-18T11:54:55;63.92;;;23.83;;
76123;SDS011;65173;48.066;20.976;2022-12-18T12:04:34;47.20;;;17.70;;
76123;SDS011;65173;48.066;20.976;2022-12-18T12:28:01;45.97;;;15.98;;
76123;SDS011;65173;48.066;20.976;2022-12-18T12:34:49;45.83;;;15.82;;
76123;SDS011;65173;48.066;20.976;2022-12-18T12:41:18;52.35;;;19.20;;
76123;SDS011;65173;48.066;20.976;2022-12-18T12:44:44;52.70;;;17.27;;
76123;SDS011;65173;48.066;20.976;2022-12-18T12:47:57;47.85;;;16.45;;
76123;SDS011;65173;48.066;20.976;2022-12-18T12:51:08;44.65;;;15.40;;
76123;SDS011;65173;48.066;20.976;2022-12-18T12:54:19;35.77;;;14.67;;
76123;SDS011;65173;48.066;20.976;2022-12-18T12:57:34;42.72;;;14.80;;
76123;SDS011;65173;48.066;20.976;2022-12-18T13:00:49;88.28;;;34.38;;
76123;SDS011;65173;48.066;20.976;2022-12-18T13:04:12;49.88;;;18.20;;
76123;SDS011;65173;48.066;20.976;2022-12-18T13:07:26;43.83;;;16.48;;
76123;SDS011;65173;48.066;20.976;2022-12-18T13:10:35;49.00;;;16.98;;
76123;SDS011;65173;48.066;20.976;2022-12-18T13:13:48;47.38;;;17.05;;
76123;SDS011;65173;48.066;20.976;2022-12-18T13:17:13;42.83;;;13.97;;
76123;SDS011;65173;48.066;20.976;2022-12-18T13:20:21;95.60;;;40.58;;
76123;SDS011;65173;48.066;20.976;2022-12-18T13:23:35;46.42;;;18.08;;
76123;SDS011;65173;48.066;20.976;2022-12-18T13:26:43;48.63;;;18.07;;
76123;SDS011;65173;48.066;20.976;2022-12-18T13:29:46;40.70;;;16.55;;
76123;SDS011;65173;48.066;20.976;2022-12-18T13:32:52;42.35;;;16.63;;
76123;SDS011;65173;48.066;20.976;2022-12-18T13:36:27;41.72;;;16.52;;
76123;SDS011;65173;48.066;20.976;2022-12-18T13:39:33;51.88;;;16.67;;
76123;SDS011;65173;48.066;20.976;2022-12-18T13:42:38;48.10;;;18.73;;
76123;SDS011;65173;48.066;20.976;2022-12-18T13:46:05;51.25;;;16.90;;
76123;SDS011;65173;48.066;20.976;2022-12-18T13:49:25;42.77;;;16.70;;
76123;SDS011;65173;48.066;20.976;2022-12-18T13:52:37;51.75;;;17.98;;
76123;SDS011;65173;48.066;20.976;2022-12-18T13:55:43;47.00;;;19.33;;
76123;SDS011;65173;48.066;20.976;2022-12-18T14:02:28;77.60;;;30.15;;
76123;SDS011;65173;48.066;20.976;2022-12-18T14:05:34;93.35;;;45.05;;
76123;SDS011;65173;48.066;20.976;2022-12-18T14:08:42;74.40;;;29.15;;
76123;SDS011;65173;48.066;20.976;2022-12-18T14:11:48;65.57;;;23.92;;
76123;SDS011;65173;48.066;20.976;2022-12-18T14:14:56;71.07;;;26.58;;
76123;SDS011;65173;48.066;20.976;2022-12-18T14:18:02;63.97;;;25.15;;
76123;SDS011;65173;48.066;20.976;2022-12-18T14:24:32;66.95;;;27.27;;
76123;SDS011;65173;48.066;20.976;2022-12-18T14:27:38;72.15;;;31.25;;
76123;SDS011;65173;48.066;20.976;2022-12-18T14:30:46;71.27;;;27.67;;
76123;SDS011;65173;48.066;20.976;2022-12-18T14:34:03;66.05;;;27.88;;
76123;SDS011;65173;48.066;20.976;2022-12-18T14:37:09;57.33;;;24.80;;
76123;SDS011;65173;48.066;20.976;2022-12-18T14:40:13;63.25;;;24.83;;
76123;SDS011;65173;48.066;20.976;2022-12-18T14:43:17;56.78;;;23.13;;
76123;SDS011;65173;48.066;20.976;2022-12-18T14:46:37;69.50;;;28.42;;
76123;SDS011;65173;48.066;20.976;2022-12-18T14:50:02;190.05;;;62.70;;
76123;SDS011;65173;48.066;20.976;2022-12-18T14:53:15;148.33;;;55.20;;
76123;SDS011;65173;48.066;20.976;2022-12-18T14:56:36;88.80;;;36.83;;
76123;SDS011;65173;48.066;20.976;2022-12-18T14:59:51;86.43;;;36.00;;
76123;SDS011;65173;48.066;20.976;2022-12-18T15:03:12;75.53;;;30.13;;
76123;SDS011;65173;48.066;20.976;2022-12-18T15:06:24;127.80;;;50.63;;
76123;SDS011;65173;48.066;20.976;2022-12-18T15:09:33;127.80;;;51.92;;
76123;SDS011;65173;48.066;20.976;2022-12-18T15:16:20;100.30;;;42.63;;
76123;SDS011;65173;48.066;20.976;2022-12-18T15:19:39;99.30;;;39.50;;
76123;SDS011;65173;48.066;20.976;2022-12-18T15:23:00;81.20;;;35.50;;
76123;SDS011;65173;48.066;20.976;2022-12-18T15:26:06;91.80;;;38.43;;
76123;SDS011;65173;48.066;20.976;2022-12-18T15:29:26;85.47;;;36.30;;
76123;SDS011;65173;48.066;20.976;2022-12-18T15:32:34;87.07;;;35.17;;
76123;SDS011;65173;48.066;20.976;2022-12-18T15:36:01;82.23;;;34.87;;
76123;SDS011;65173;48.066;20.976;2022-12-18T15:39:37;110.82;;;42.33;;
76123;SDS011;65173;48.066;20.976;2022-12-18T15:42:57;91.32;;;36.88;;
76123;SDS011;65173;48.066;20.976;2022-12-18T15:46:22;79.13;;;32.72;;
76123;SDS011;65173;48.066;20.976;2022-12-18T15:49:31;67.20;;;28.05;;
76123;SDS011;65173;48.066;20.976;2022-12-18T15:52:45;58.13;;;24.67;;
76123;SDS011;65173;48.066;20.976;2022-12-18T15:55:51;63.50;;;25.15;;
76123;SDS011;65173;48.066;20.976;2022-12-18T15:59:28;63.07;;;24.17;;
76123;SDS011;65173;48.066;20.976;2022-12-18T16:02:49;62.22;;;23.95;;
76123;SDS011;65173;48.066;20.976;2022-12-18T16:05:53;47.20;;;22.90;;
76123;SDS011;65173;48.066;20.976;2022-12-18T16:09:14;57.77;;;26.73;;
76123;SDS011;65173;48.066;20.976;2022-12-18T16:12:32;61.35;;;26.38;;
76123;SDS011;65173;48.066;20.976;2022-12-18T16:15:46;62.83;;;24.67;;
76123;SDS011;65173;48.066;20.976;2022-12-18T16:19:12;82.47;;;32.72;;
76123;SDS011;65173;48.066;20.976;2022-12-18T16:22:18;81.00;;;31.95;;
76123;SDS011;65173;48.066;20.976;2022-12-18T16:25:38;85.10;;;31.75;;
76123;SDS011;65173;48.066;20.976;2022-12-18T16:28:56;73.78;;;29.88;;
76123;SDS011;65173;48.066;20.976;2022-12-18T16:32:01;83.60;;;33.03;;
76123;SDS011;65173;48.066;20.976;2022-12-18T16:35:20;89.00;;;34.97;;
76123;SDS011;65173;48.066;20.976;2022-12-18T16:38:27;85.30;;;34.05;;
76123;SDS011;65173;48.066;20.976;2022-12-18T16:41:35;93.57;;;37.97;;
76123;SDS011;65173;48.066;20.976;2022-12-18T16:44:53;81.53;;;33.65;;
76123;SDS011;65173;48.066;20.976;2022-12-18T16:48:12;95.20;;;38.92;;
76123;SDS011;65173;48.066;20.976;2022-12-18T16:51:31;91.05;;;39.95;;
76123;SDS011;65173;48.066;20.976;2022-12-18T16:54:54;97.40;;;35.17;;
76123;SDS011;65173;48.066;20.976;2022-12-18T16:57:58;92.25;;;39.08;;
76123;SDS011;65173;48.066;20.976;2022-12-18T17:01:06;100.22;;;41.35;;
76123;SDS011;65173;48.066;20.976;2022-12-18T17:04:10;97.53;;;38.57;;
76123;SDS011;65173;48.066;20.976;2022-12-18T17:07:15;96.60;;;41.58;;
76123;SDS011;65173;48.066;20.976;2022-12-18T17:10:18;87.07;;;35.55;;
76123;SDS011;65173;48.066;20.976;2022-12-18T17:13:21;98.10;;;40.50;;
76123;SDS011;65173;48.066;20.976;2022-12-18T17:16:27;106.22;;;40.72;;
76123;SDS011;65173;48.066;20.976;2022-12-18T17:19:30;98.40;;;38.83;;
76123;SDS011;65173;48.066;20.976;2022-12-18T17:22:33;96.95;;;41.55;;
76123;SDS011;65173;48.066;20.976;2022-12-18T17:25:38;102.18;;;39.40;;
76123;SDS011;65173;48.066;20.976;2022-12-18T17:28:41;89.85;;;37.67;;
76123;SDS011;65173;48.066;20.976;2022-12-18T17:31:45;94.60;;;39.45;;
76123;SDS011;65173;48.066;20.976;2022-12-18T17:34:48;116.53;;;49.40;;
76123;SDS011;65173;48.066;20.976;2022-12-18T17:37:51;107.00;;;42.38;;
76123;SDS011;65173;48.066;20.976;2022-12-18T17:40:59;101.32;;;38.67;;
76123;SDS011;65173;48.066;20.976;2022-12-18T17:44:04;95.80;;;37.93;;
76123;SDS011;65173;48.066;20.976;2022-12-18T17:47:07;100.78;;;39.70;;
76123;SDS011;65173;48.066;20.976;2022-12-18T17:50:14;105.22;;;42.72;;
76123;SDS011;65173;48.066;20.976;2022-12-18T17:53:17;120.40;;;46.08;;
76123;SDS011;65173;48.066;20.976;2022-12-18T17:56:21;122.78;;;49.13;;
76123;SDS011;65173;48.066;20.976;2022-12-18T17:59:24;199.02;;;71.85;;
76123;SDS011;65173;48.066;20.976;2022-12-18T18:02:27;224.60;;;89.38;;
76123;SDS011;65173;48.066;20.976;2022-12-18T18:05:31;251.47;;;102.30;;
76123;SDS011;65173;48.066;20.976;2022-12-18T18:08:35;284.98;;;117.38;;
76123;SDS011;65173;48.066;20.976;2022-12-18T18:11:38;200.45;;;80.40;;
76123;SDS011;65173;48.066;20.976;2022-12-18T18:15:00;239.23;;;98.90;;
76123;SDS011;65173;48.066;20.976;2022-12-18T18:18:03;171.30;;;64.20;;
76123;SDS011;65173;48.066;20.976;2022-12-18T18:21:07;147.48;;;61.38;;
76123;SDS011;65173;48.066;20.976;2022-12-18T18:24:11;141.88;;;54.17;;
76123;SDS011;65173;48.066;20.976;2022-12-18T18:27:16;131.15;;;50.92;;
76123;SDS011;65173;48.066;20.976;2022-12-18T18:30:19;137.23;;;54.28;;
76123;SDS011;65173;48.066;20.976;2022-12-18T18:33:22;133.10;;;47.90;;
76123;SDS011;65173;48.066;20.976;2022-12-18T18:36:25;123.63;;;47.47;;
76123;SDS011;65173;48.066;20.976;2022-12-18T18:39:28;112.97;;;47.13;;
76123;SDS011;65173;48.066;20.976;2022-12-18T18:42:31;136.15;;;56.28;;
76123;SDS011;65173;48.066;20.976;2022-12-18T18:45:34;160.83;;;61.83;;
76123;SDS011;65173;48.066;20.976;2022-12-18T18:48:37;136.85;;;54.15;;
76123;SDS011;65173;48.066;20.976;2022-12-18T18:51:45;132.27;;;50.67;;
76123;SDS011;65173;48.066;20.976;2022-12-18T18:54:47;111.80;;;43.17;;
76123;SDS011;65173;48.066;20.976;2022-12-18T18:58:10;96.10;;;36.70;;
76123;SDS011;65173;48.066;20.976;2022-12-18T19:01:17;85.88;;;34.70;;
76123;SDS011;65173;48.066;20.976;2022-12-18T19:04:21;78.50;;;30.05;;
76123;SDS011;65173;48.066;20.976;2022-12-18T19:07:24;70.37;;;24.90;;
76123;SDS011;65173;48.066;20.976;2022-12-18T19:10:32;58.78;;;22.55;;
76123;SDS011;65173;48.066;20.976;2022-12-18T19:13:35;66.50;;;24.27;;
76123;SDS011;65173;48.066;20.976;2022-12-18T19:16:38;52.33;;;20.57;;
76123;SDS011;65173;48.066;20.976;2022-12-18T19:19:41;58.92;;;19.42;;
76123;SDS011;65173;48.066;20.976;2022-12-18T19:22:44;59.97;;;19.65;;
76123;SDS011;65173;48.066;20.976;2022-12-18T19:26:00;45.22;;;17.08;;
76123;SDS011;65173;48.066;20.976;2022-12-18T19:29:25;46.97;;;15.98;;
76123;SDS011;65173;48.066;20.976;2022-12-18T19:32:29;42.33;;;16.15;;